Time;durP1;ratioP1;P1;durP2;ratioP2;P2;SDS_P1;SDS_P2;PMS_P1;PMS_P2;Temp;Humidity;BMP_temperature;BMP_pressure;BME280_temperature;BME280_humidity;BME280_pressure;Samples;Min_cycle;Max_cycle;Signal;HPM_P1;HPM_P2
2022/02/20 00:01:08;;;;;;;5.00;3.63;;;5.10;99.90;;;;;;5050674;28;20222;-72
2022/02/20 00:03:35;;;;;;;7.25;5.32;;;5.10;99.90;;;;;;5057716;28;20302;-74
2022/02/20 00:06:02;;;;;;;4.93;4.45;;;5.10;99.90;;;;;;5046896;28;20189;-71
2022/02/20 00:08:29;;;;;;;4.45;4.05;;;5.10;99.90;;;;;;5046818;28;20226;-72
2022/02/20 00:10:58;;;;;;;5.60;5.10;;;5.10;99.90;;;;;;5050905;28;20263;-71
2022/02/20 00:13:25;;;;;;;10.35;6.60;;;5.00;99.90;;;;;;5065800;28;20219;-74
2022/02/20 00:15:52;;;;;;;10.73;6.20;;;5.10;99.90;;;;;;5085338;28;20195;-72
2022/02/20 00:18:20;;;;;;;8.68;5.70;;;5.10;99.90;;;;;;5085829;28;20310;-72
2022/02/20 00:20:47;;;;;;;7.20;5.45;;;5.00;99.90;;;;;;5086125;28;20223;-73
2022/02/20 00:23:16;;;;;;;6.15;4.80;;;5.00;99.90;;;;;;5085969;28;20214;-72
2022/02/20 00:25:45;;;;;;;10.85;8.20;;;5.10;99.90;;;;;;5086822;28;20193;-76
2022/02/20 00:28:14;;;;;;;8.82;5.93;;;5.20;99.90;;;;;;5086863;28;20234;-70
2022/02/20 00:30:41;;;;;;;7.90;6.47;;;5.10;99.90;;;;;;5086383;28;20202;-73
2022/02/20 00:33:08;;;;;;;13.75;11.63;;;5.10;99.90;;;;;;5086511;28;20218;-75
2022/02/20 00:35:35;;;;;;;7.35;6.25;;;5.10;99.90;;;;;;5086961;28;20407;-74
2022/02/20 00:38:05;;;;;;;7.53;5.82;;;5.00;99.90;;;;;;5086646;28;20187;-72
2022/02/20 00:40:32;;;;;;;7.78;6.45;;;5.00;99.90;;;;;;5085954;28;20205;-75
2022/02/20 00:42:59;;;;;;;8.15;7.35;;;5.00;99.90;;;;;;5062018;28;20220;-74
2022/02/20 00:45:28;;;;;;;10.02;7.53;;;5.00;99.90;;;;;;5062337;28;20200;-74
2022/02/20 00:47:56;;;;;;;10.10;7.78;;;5.00;99.90;;;;;;5053176;28;20187;-73
2022/02/20 00:50:23;;;;;;;10.63;7.82;;;5.10;99.90;;;;;;5053441;28;20231;-75
2022/02/20 00:52:50;;;;;;;10.27;7.85;;;5.10;99.90;;;;;;5046621;28;20209;-70
2022/02/20 00:55:17;;;;;;;10.95;8.85;;;5.20;99.90;;;;;;5046154;28;20271;-74
2022/02/20 00:57:44;;;;;;;8.65;7.78;;;5.10;99.90;;;;;;5046318;28;20313;-73
2022/02/20 01:00:13;;;;;;;12.43;9.80;;;5.20;99.90;;;;;;5052160;28;20193;-76
2022/02/20 01:02:41;;;;;;;9.10;8.20;;;5.20;99.90;;;;;;5063722;28;20239;-73
2022/02/20 01:05:10;;;;;;;8.05;7.25;;;5.40;99.90;;;;;;5051727;28;20227;-73
2022/02/20 01:07:37;;;;;;;10.52;8.07;;;5.30;99.90;;;;;;5046267;28;20242;-73
2022/02/20 01:10:07;;;;;;;12.68;9.73;;;5.20;99.90;;;;;;5045640;28;20219;-72
2022/02/20 01:12:34;;;;;;;10.70;9.60;;;5.20;99.90;;;;;;5054405;28;20271;-70
2022/02/20 01:15:01;;;;;;;12.65;9.75;;;5.30;99.90;;;;;;5049031;28;20189;-74
2022/02/20 01:17:28;;;;;;;11.75;10.25;;;5.40;99.90;;;;;;5055614;28;20245;-75
2022/02/20 01:19:56;;;;;;;10.45;9.30;;;5.40;99.90;;;;;;5050946;28;20235;-71
2022/02/20 01:22:24;;;;;;;15.57;11.18;;;5.40;99.90;;;;;;5061693;28;20205;-72
2022/02/20 01:24:51;;;;;;;11.98;10.65;;;5.50;99.90;;;;;;5051149;28;20184;-72
2022/02/20 01:27:18;;;;;;;17.00;11.18;;;5.60;99.90;;;;;;5049163;28;20224;-74
2022/02/20 01:29:45;;;;;;;14.73;11.30;;;5.60;99.90;;;;;;5048946;28;20208;-73
2022/02/20 01:32:13;;;;;;;12.93;10.88;;;5.60;99.90;;;;;;5049452;28;20217;-76
2022/02/20 01:34:40;;;;;;;16.75;12.15;;;5.50;99.90;;;;;;5062196;28;20194;-74
2022/02/20 01:37:08;;;;;;;15.10;12.13;;;5.50;99.90;;;;;;5049156;28;20421;-72
2022/02/20 01:39:35;;;;;;;12.38;11.13;;;5.60;99.90;;;;;;5049022;28;20261;-73
2022/02/20 01:42:03;;;;;;;14.20;12.70;;;5.60;99.90;;;;;;5049352;28;20244;-73
2022/02/20 01:44:32;;;;;;;13.40;11.32;;;5.70;99.90;;;;;;5066128;28;20256;-73
2022/02/20 01:47:04;;;;;;;14.60;13.05;;;5.70;99.90;;;;;;5054528;28;20271;-72
2022/02/20 01:49:31;;;;;;;12.90;10.77;;;5.70;99.90;;;;;;5053325;28;20201;-73
2022/02/20 01:51:59;;;;;;;15.52;11.60;;;5.80;99.90;;;;;;5048718;28;20205;-71
2022/02/20 01:54:27;;;;;;;14.35;12.57;;;5.80;99.90;;;;;;5051607;28;20204;-72
2022/02/20 01:56:55;;;;;;;16.27;12.43;;;5.80;99.90;;;;;;5057448;28;20194;-70
2022/02/20 01:59:23;;;;;;;15.23;12.98;;;5.80;99.90;;;;;;5052908;28;20192;-72
2022/02/20 02:01:51;;;;;;;14.73;12.82;;;5.80;99.90;;;;;;5056375;28;20236;-73
2022/02/20 02:04:18;;;;;;;12.52;11.25;;;5.80;99.90;;;;;;5061339;28;20218;-73
2022/02/20 02:06:46;;;;;;;13.77;12.20;;;5.80;99.90;;;;;;5058283;28;20205;-74
2022/02/20 02:09:13;;;;;;;17.38;13.35;;;5.80;99.90;;;;;;5063783;28;20186;-73
2022/02/20 02:11:42;;;;;;;14.88;13.23;;;5.80;99.90;;;;;;5053319;28;20392;-74
2022/02/20 02:14:09;;;;;;;15.48;13.40;;;5.80;99.90;;;;;;5058626;28;20252;-75
2022/02/20 02:16:36;;;;;;;14.82;12.00;;;5.90;99.90;;;;;;5052835;28;20269;-73
2022/02/20 02:19:03;;;;;;;20.88;13.98;;;5.90;99.90;;;;;;5056739;28;20212;-75
2022/02/20 02:21:30;;;;;;;16.60;13.95;;;5.70;99.90;;;;;;5054578;28;20229;-71
2022/02/20 02:24:01;;;;;;;15.57;13.35;;;5.70;99.90;;;;;;5051390;28;20208;-73
2022/02/20 02:26:31;;;;;;;16.27;13.73;;;5.70;99.90;;;;;;5057904;28;20263;-74
2022/02/20 02:28:58;;;;;;;14.48;12.95;;;5.70;99.90;;;;;;5052095;28;20236;-71
2022/02/20 02:31:25;;;;;;;14.63;12.90;;;5.80;99.90;;;;;;5059445;28;20189;-70
2022/02/20 02:33:59;;;;;;;16.45;13.07;;;5.80;99.90;;;;;;5068644;28;20388;-70
2022/02/20 02:36:27;;;;;;;17.52;14.38;;;5.90;99.90;;;;;;5066286;28;20296;-74
2022/02/20 02:38:54;;;;;;;15.88;13.10;;;5.80;99.90;;;;;;5056337;28;20197;-74
2022/02/20 02:41:22;;;;;;;18.23;15.20;;;5.80;99.90;;;;;;5056944;28;20212;-74
2022/02/20 02:43:51;;;;;;;18.58;14.02;;;5.80;99.90;;;;;;5062046;28;20217;-71
2022/02/20 02:46:17;;;;;;;18.30;14.88;;;5.80;99.90;;;;;;5058441;28;20197;-70
2022/02/20 02:48:48;;;;;;;15.48;13.15;;;5.70;99.90;;;;;;5057985;28;20203;-75
2022/02/20 02:51:16;;;;;;;18.50;15.52;;;5.70;99.90;;;;;;5048311;28;20313;-72
2022/02/20 02:53:44;;;;;;;16.48;13.30;;;5.80;99.90;;;;;;5057705;28;20200;-72
2022/02/20 02:56:11;;;;;;;16.52;14.23;;;5.60;99.90;;;;;;5053951;28;20283;-73
2022/02/20 02:58:39;;;;;;;16.75;13.00;;;5.60;99.90;;;;;;5047358;28;20186;-72
2022/02/20 03:01:06;;;;;;;18.00;11.82;;;5.60;99.90;;;;;;5047793;28;20240;-70
2022/02/20 03:03:33;;;;;;;14.02;12.50;;;5.60;99.90;;;;;;5047392;28;20251;-71
2022/02/20 03:06:00;;;;;;;11.93;10.50;;;5.60;99.90;;;;;;5052165;28;20243;-73
2022/02/20 03:08:28;;;;;;;11.40;9.77;;;5.60;99.90;;;;;;5049848;28;20239;-73
2022/02/20 03:10:56;;;;;;;9.70;7.90;;;5.60;99.90;;;;;;5060819;28;20392;-72
2022/02/20 03:13:24;;;;;;;8.20;7.05;;;5.60;99.90;;;;;;5047991;28;20208;-73
2022/02/20 03:15:53;;;;;;;8.07;7.28;;;5.50;99.90;;;;;;5048427;28;20231;-74
2022/02/20 03:18:19;;;;;;;8.38;6.85;;;5.50;99.90;;;;;;5052164;28;20379;-73
2022/02/20 03:20:46;;;;;;;7.40;6.70;;;5.50;99.90;;;;;;5051855;28;20250;-75
2022/02/20 03:23:13;;;;;;;9.60;7.45;;;5.50;99.90;;;;;;5056975;28;20227;-72
2022/02/20 03:25:40;;;;;;;6.82;5.70;;;5.50;99.90;;;;;;5064989;28;20400;-72
2022/02/20 03:28:07;;;;;;;7.15;6.45;;;5.60;99.90;;;;;;5050454;28;20207;-74
2022/02/20 03:30:34;;;;;;;6.03;5.43;;;5.50;99.90;;;;;;5048802;28;20199;-72
2022/02/20 03:33:02;;;;;;;5.97;5.07;;;5.60;99.90;;;;;;5056111;28;20200;-73
2022/02/20 03:35:29;;;;;;;6.65;6.05;;;5.60;99.90;;;;;;5056842;28;20195;-74
2022/02/20 03:37:56;;;;;;;6.40;5.18;;;5.60;99.90;;;;;;5047334;28;20182;-74
2022/02/20 03:40:23;;;;;;;7.00;5.28;;;5.60;99.90;;;;;;5046485;28;20429;-72
2022/02/20 03:42:50;;;;;;;6.18;5.55;;;5.60;99.90;;;;;;5052703;28;20337;-75
2022/02/20 03:45:18;;;;;;;5.25;4.43;;;5.70;99.90;;;;;;5064260;28;20416;-74
2022/02/20 03:47:45;;;;;;;5.38;4.60;;;5.60;99.90;;;;;;5055916;28;20264;-74
2022/02/20 03:50:14;;;;;;;6.82;5.32;;;5.60;99.90;;;;;;5062006;28;20425;-73
2022/02/20 03:52:41;;;;;;;6.68;5.00;;;5.60;99.90;;;;;;5058176;28;20207;-76
2022/02/20 03:55:14;;;;;;;4.95;4.43;;;5.50;99.90;;;;;;5053387;28;20379;-73
2022/02/20 03:57:42;;;;;;;5.60;4.40;;;5.50;99.90;;;;;;5062467;28;20253;-71
2022/02/20 04:00:13;;;;;;;5.20;4.03;;;5.60;99.90;;;;;;5050759;28;20192;-73
2022/02/20 04:02:41;;;;;;;6.00;5.10;;;5.60;99.90;;;;;;5049964;28;20255;-73
2022/02/20 04:05:09;;;;;;;5.63;5.03;;;5.60;99.90;;;;;;5053153;28;20208;-73
2022/02/20 04:07:39;;;;;;;5.85;4.30;;;5.50;99.90;;;;;;5053050;28;20188;-73
2022/02/20 04:10:09;;;;;;;6.20;4.00;;;5.50;99.90;;;;;;5053885;28;20380;-74
2022/02/20 04:12:36;;;;;;;5.32;4.53;;;5.60;99.90;;;;;;5047143;28;20209;-72
2022/02/20 04:15:06;;;;;;;4.80;4.30;;;5.60;99.90;;;;;;5046675;28;20220;-73
2022/02/20 04:17:39;;;;;;;6.30;4.78;;;5.60;99.90;;;;;;5046034;28;20189;-74
2022/02/20 04:20:07;;;;;;;7.25;4.25;;;5.60;99.90;;;;;;5046652;28;20188;-73
2022/02/20 04:22:34;;;;;;;4.40;3.15;;;5.60;99.90;;;;;;5056812;28;20458;-72
2022/02/20 04:25:03;;;;;;;4.15;3.33;;;5.60;99.90;;;;;;5067686;28;20188;-76
2022/02/20 04:27:30;;;;;;;4.40;4.00;;;5.60;99.90;;;;;;5063099;28;20215;-73
2022/02/20 04:29:57;;;;;;;4.45;3.53;;;5.50;99.90;;;;;;5057042;28;20202;-74
2022/02/20 04:32:24;;;;;;;4.57;3.47;;;5.30;99.90;;;;;;5059974;28;20232;-74
2022/02/20 04:34:51;;;;;;;3.80;3.30;;;5.30;99.90;;;;;;5049872;28;20187;-74
2022/02/20 04:37:18;;;;;;;3.67;3.38;;;5.20;99.90;;;;;;5051354;28;20198;-72
2022/02/20 04:39:45;;;;;;;8.25;4.25;;;5.10;99.90;;;;;;5056322;28;20184;-74
2022/02/20 04:42:13;;;;;;;7.90;4.13;;;5.10;99.90;;;;;;5060510;28;20282;-74
2022/02/20 04:44:41;;;;;;;4.93;3.45;;;5.00;99.90;;;;;;5054294;28;20272;-72
2022/02/20 04:47:08;;;;;;;5.10;4.60;;;4.80;99.90;;;;;;5052540;28;20188;-75
2022/02/20 04:49:35;;;;;;;4.72;4.18;;;4.90;99.90;;;;;;5062271;28;20203;-74
2022/02/20 04:52:03;;;;;;;4.75;3.60;;;4.80;99.90;;;;;;5047367;28;20275;-74
2022/02/20 04:54:30;;;;;;;9.07;5.20;;;4.70;99.90;;;;;;5045755;28;20242;-74
2022/02/20 04:56:57;;;;;;;5.57;3.95;;;4.70;99.90;;;;;;5062841;28;20184;-71
2022/02/20 04:59:25;;;;;;;4.82;3.97;;;4.60;99.90;;;;;;5057709;28;20263;-75
2022/02/20 05:01:52;;;;;;;5.38;3.90;;;4.70;99.90;;;;;;5058325;28;20424;-75
2022/02/20 05:04:19;;;;;;;9.13;5.45;;;4.60;99.90;;;;;;5060757;28;20380;-72
2022/02/20 05:06:46;;;;;;;4.57;3.90;;;4.70;99.90;;;;;;5056899;28;20389;-72
2022/02/20 05:09:13;;;;;;;6.90;4.40;;;4.60;99.90;;;;;;5050171;28;20203;-72
2022/02/20 05:11:40;;;;;;;6.93;4.68;;;4.50;99.90;;;;;;5051905;28;20225;-72
2022/02/20 05:14:07;;;;;;;7.53;5.18;;;4.50;99.90;;;;;;5062567;28;20248;-72
2022/02/20 05:16:35;;;;;;;6.50;5.07;;;4.40;99.90;;;;;;5063702;28;20434;-71
2022/02/20 05:19:02;;;;;;;6.70;4.95;;;4.40;99.90;;;;;;5061815;28;20230;-71
2022/02/20 05:21:29;;;;;;;6.32;4.95;;;4.40;99.90;;;;;;5050575;28;20207;-74
2022/02/20 05:23:56;;;;;;;6.60;4.30;;;4.30;99.90;;;;;;5049977;28;20187;-72
2022/02/20 05:26:22;;;;;;;7.93;5.13;;;4.40;99.90;;;;;;5049039;28;20409;-71
2022/02/20 05:28:50;;;;;;;5.95;4.22;;;4.30;99.90;;;;;;5049471;28;20180;-71
2022/02/20 05:31:17;;;;;;;9.25;6.25;;;4.30;99.90;;;;;;5048671;28;20408;-71
2022/02/20 05:33:45;;;;;;;7.00;5.32;;;4.30;99.90;;;;;;5049274;28;20232;-71
2022/02/20 05:36:12;;;;;;;9.32;5.60;;;4.20;99.90;;;;;;5056414;28;20514;-71
2022/02/20 05:38:39;;;;;;;9.85;6.10;;;4.20;99.90;;;;;;5063004;28;20214;-72
2022/02/20 05:41:05;;;;;;;8.65;6.75;;;4.20;99.90;;;;;;5059844;28;20397;-73
2022/02/20 05:43:32;;;;;;;7.93;5.13;;;4.20;99.90;;;;;;5053884;28;20267;-75
2022/02/20 05:45:59;;;;;;;7.15;5.28;;;4.10;99.90;;;;;;5059108;28;20233;-76
2022/02/20 05:48:26;;;;;;;6.40;4.63;;;4.10;99.90;;;;;;5053915;28;20232;-74
2022/02/20 05:50:55;;;;;;;7.75;5.05;;;4.10;99.90;;;;;;5048967;28;20185;-73
2022/02/20 05:53:21;;;;;;;7.80;5.93;;;4.00;99.90;;;;;;5052210;28;20206;-75
2022/02/20 05:55:49;;;;;;;7.22;5.35;;;4.00;99.90;;;;;;5050283;28;20200;-72
2022/02/20 05:58:17;;;;;;;7.40;5.50;;;4.00;99.90;;;;;;5050332;28;20409;-74
2022/02/20 06:00:44;;;;;;;6.82;5.35;;;4.00;99.90;;;;;;5051178;28;20188;-72
2022/02/20 06:03:11;;;;;;;7.57;4.90;;;4.10;99.90;;;;;;5053127;28;20211;-72
2022/02/20 06:05:38;;;;;;;6.05;4.45;;;4.10;99.90;;;;;;5052882;28;20211;-72
2022/02/20 06:08:09;;;;;;;7.82;4.93;;;4.10;99.90;;;;;;5053507;28;20397;-73
2022/02/20 06:10:36;;;;;;;7.70;4.78;;;4.10;99.90;;;;;;5052352;28;20231;-73
2022/02/20 06:13:03;;;;;;;7.63;6.15;;;4.10;99.90;;;;;;5053840;28;20231;-73
2022/02/20 06:15:31;;;;;;;6.20;4.45;;;4.10;99.90;;;;;;5050809;28;20223;-72
2022/02/20 06:17:57;;;;;;;6.20;4.28;;;4.20;99.90;;;;;;5049715;28;20176;-73
2022/02/20 06:20:24;;;;;;;8.30;5.00;;;4.20;99.90;;;;;;5049414;28;20247;-73
2022/02/20 06:22:52;;;;;;;6.53;4.85;;;4.00;99.90;;;;;;5048934;28;20247;-73
2022/02/20 06:25:21;;;;;;;7.18;5.30;;;4.20;99.90;;;;;;5057201;28;20188;-76
2022/02/20 06:27:48;;;;;;;8.63;5.97;;;4.10;99.90;;;;;;5068412;28;20431;-74
2022/02/20 06:30:15;;;;;;;7.68;5.40;;;4.20;99.90;;;;;;5068540;28;20187;-72
2022/02/20 06:32:42;;;;;;;8.63;5.60;;;4.30;99.90;;;;;;5069297;28;20383;-75
2022/02/20 06:35:09;;;;;;;6.38;4.50;;;4.30;99.90;;;;;;5069035;28;20195;-75
2022/02/20 06:37:36;;;;;;;8.32;5.80;;;4.30;99.90;;;;;;5069121;28;20219;-75
2022/02/20 06:40:03;;;;;;;9.98;6.13;;;4.30;99.90;;;;;;5068821;28;20187;-75
2022/02/20 06:42:31;;;;;;;10.07;7.32;;;4.40;99.90;;;;;;5068741;28;20220;-74
2022/02/20 06:44:58;;;;;;;9.68;5.78;;;4.40;99.90;;;;;;5068848;28;20192;-75
2022/02/20 06:47:25;;;;;;;11.65;5.85;;;4.40;99.90;;;;;;5064427;28;20208;-73
2022/02/20 06:49:52;;;;;;;9.93;6.53;;;4.40;99.90;;;;;;5048730;28;20184;-74
2022/02/20 06:52:19;;;;;;;6.75;5.68;;;4.60;99.90;;;;;;5048838;28;20231;-75
2022/02/20 06:54:46;;;;;;;8.40;6.20;;;4.50;99.90;;;;;;5056988;28;20183;-73
2022/02/20 06:57:13;;;;;;;8.27;7.05;;;4.50;99.90;;;;;;5063029;28;20188;-74
2022/02/20 06:59:41;;;;;;;10.05;6.25;;;4.50;99.90;;;;;;5068346;28;20176;-75
2022/02/20 07:02:08;;;;;;;8.43;6.28;;;4.50;99.90;;;;;;5068836;28;20261;-74
2022/02/20 07:04:35;;;;;;;8.68;7.28;;;4.50;99.90;;;;;;5064019;28;20215;-76
2022/02/20 07:07:03;;;;;;;11.55;6.07;;;4.50;99.90;;;;;;5064905;28;20187;-75
2022/02/20 07:09:30;;;;;;;9.70;7.35;;;4.50;99.90;;;;;;5051278;28;20212;-72
2022/02/20 07:11:56;;;;;;;7.75;6.13;;;4.50;99.90;;;;;;5060575;28;20435;-75
2022/02/20 07:14:23;;;;;;;8.80;6.32;;;4.40;99.90;;;;;;5059279;28;20211;-74
2022/02/20 07:16:51;;;;;;;9.80;6.72;;;4.50;99.90;;;;;;5048438;28;20373;-73
2022/02/20 07:19:18;;;;;;;10.63;7.25;;;4.50;99.90;;;;;;5056196;28;20286;-72
2022/02/20 07:21:45;;;;;;;10.10;6.38;;;4.50;99.90;;;;;;5057129;28;20214;-73
2022/02/20 07:24:13;;;;;;;11.23;9.10;;;4.60;99.90;;;;;;5047543;28;20180;-78
2022/02/20 07:26:40;;;;;;;8.20;5.60;;;4.70;99.90;;;;;;5050531;28;20250;-76
2022/02/20 07:29:07;;;;;;;11.48;8.18;;;4.60;99.90;;;;;;5060942;28;20220;-75
2022/02/20 07:31:34;;;;;;;13.63;7.88;;;4.70;99.90;;;;;;5064731;28;20188;-75
2022/02/20 07:34:03;;;;;;;11.15;7.85;;;4.70;99.90;;;;;;5064709;28;20210;-75
2022/02/20 07:36:29;;;;;;;9.38;6.82;;;4.80;99.90;;;;;;5055491;28;20423;-74
2022/02/20 07:38:56;;;;;;;12.00;8.57;;;4.90;99.90;;;;;;5058640;28;20282;-71
2022/02/20 07:41:23;;;;;;;7.90;7.07;;;4.80;99.90;;;;;;5065019;28;20198;-74
2022/02/20 07:43:50;;;;;;;11.68;9.45;;;4.90;99.90;;;;;;5049465;28;20231;-72
2022/02/20 07:46:18;;;;;;;12.25;8.52;;;4.90;99.90;;;;;;5056202;28;20392;-74
2022/02/20 07:48:45;;;;;;;12.57;8.80;;;5.00;99.90;;;;;;5053791;28;20259;-74
2022/02/20 07:51:14;;;;;;;12.88;7.97;;;5.00;99.90;;;;;;5057190;28;20256;-74
2022/02/20 07:53:42;;;;;;;11.52;8.35;;;5.00;99.90;;;;;;5051027;28;20281;-74
2022/02/20 07:56:09;;;;;;;12.77;8.98;;;5.00;99.90;;;;;;5054437;28;20260;-75
2022/02/20 07:58:37;;;;;;;9.63;7.93;;;5.00;99.90;;;;;;5049606;28;20184;-74
2022/02/20 08:01:05;;;;;;;11.15;7.43;;;5.00;99.90;;;;;;5054112;28;20194;-74
2022/02/20 08:03:32;;;;;;;12.50;8.05;;;5.00;99.90;;;;;;5052044;28;20223;-73
2022/02/20 08:05:59;;;;;;;8.93;7.32;;;5.10;99.90;;;;;;5058410;28;20250;-73
2022/02/20 08:08:28;;;;;;;18.23;9.07;;;5.10;99.90;;;;;;5059281;28;20191;-73
2022/02/20 08:10:55;;;;;;;9.90;8.05;;;5.00;99.90;;;;;;5052729;28;20234;-72
2022/02/20 08:13:22;;;;;;;9.85;6.80;;;4.90;99.90;;;;;;5063929;28;20200;-71
2022/02/20 08:15:49;;;;;;;10.00;7.80;;;4.90;99.90;;;;;;5059494;28;20254;-73
2022/02/20 08:18:16;;;;;;;8.82;6.72;;;4.90;99.90;;;;;;5049519;28;20188;-74
2022/02/20 08:20:44;;;;;;;7.75;5.72;;;4.90;99.90;;;;;;5046240;28;20188;-75
2022/02/20 08:23:11;;;;;;;12.88;8.05;;;4.80;99.90;;;;;;5058232;28;20220;-74
2022/02/20 08:25:40;;;;;;;9.77;7.45;;;4.80;99.90;;;;;;5046802;28;20266;-74
2022/02/20 08:28:07;;;;;;;9.60;6.75;;;4.90;99.90;;;;;;5047647;28;20208;-79
2022/02/20 08:30:34;;;;;;;12.75;7.22;;;4.80;99.90;;;;;;5057595;28;20254;-74
2022/02/20 08:33:02;;;;;;;9.02;7.25;;;4.80;99.90;;;;;;5049101;28;20200;-77
2022/02/20 08:35:29;;;;;;;8.10;6.93;;;4.80;99.90;;;;;;5050653;28;20214;-73
2022/02/20 08:37:56;;;;;;;15.13;6.63;;;4.80;99.90;;;;;;5054056;28;20188;-73
2022/02/20 08:40:23;;;;;;;9.20;6.55;;;4.90;99.90;;;;;;5058104;28;20420;-73
2022/02/20 08:42:51;;;;;;;9.60;6.18;;;4.80;99.90;;;;;;5049516;28;20447;-75
2022/02/20 08:45:18;;;;;;;11.95;6.78;;;4.90;99.90;;;;;;5052628;28;20180;-71
2022/02/20 08:47:46;;;;;;;8.95;6.07;;;5.00;99.90;;;;;;5058488;28;20211;-72
2022/02/20 08:50:14;;;;;;;14.02;6.82;;;4.70;99.90;;;;;;5049541;28;20196;-73
2022/02/20 08:52:45;;;;;;;7.82;5.35;;;4.80;99.90;;;;;;5049373;28;20207;-71
2022/02/20 08:55:13;;;;;;;8.38;5.28;;;4.80;99.90;;;;;;5050918;28;20188;-72
2022/02/20 08:57:41;;;;;;;11.25;6.72;;;4.80;99.90;;;;;;5052847;28;20441;-71
2022/02/20 09:00:12;;;;;;;8.48;6.80;;;4.90;99.90;;;;;;5052652;28;20212;-73
2022/02/20 09:02:39;;;;;;;8.00;6.03;;;4.90;99.90;;;;;;5049272;28;20463;-73
2022/02/20 09:05:06;;;;;;;10.43;6.68;;;4.90;99.90;;;;;;5049291;28;20386;-72
2022/02/20 09:07:34;;;;;;;8.90;6.82;;;5.00;99.90;;;;;;5049656;28;20223;-71
2022/02/20 09:10:04;;;;;;;12.55;6.50;;;4.90;99.90;;;;;;5049205;28;20188;-72
2022/02/20 09:12:32;;;;;;;11.48;6.60;;;5.00;99.90;;;;;;5049435;28;20215;-70
2022/02/20 09:14:59;;;;;;;9.02;6.05;;;5.00;99.90;;;;;;5050040;28;20298;-72
2022/02/20 09:17:27;;;;;;;10.00;7.95;;;5.00;99.90;;;;;;5051041;28;20196;-74
2022/02/20 09:19:54;;;;;;;9.40;6.85;;;5.00;99.90;;;;;;5052674;28;20217;-73
2022/02/20 09:22:24;;;;;;;10.43;7.70;;;5.10;99.90;;;;;;5056528;28;20243;-71
2022/02/20 09:24:51;;;;;;;12.48;6.93;;;5.10;99.90;;;;;;5053343;28;20361;-74
2022/02/20 09:27:18;;;;;;;9.77;7.57;;;5.20;99.90;;;;;;5052873;28;20263;-71
2022/02/20 09:29:45;;;;;;;10.68;7.70;;;5.20;99.90;;;;;;5052563;28;20219;-72
2022/02/20 09:32:12;;;;;;;9.45;7.65;;;5.40;99.90;;;;;;5058987;28;20199;-72
2022/02/20 09:34:41;;;;;;;14.95;9.55;;;5.30;99.90;;;;;;5051114;28;20208;-72
2022/02/20 09:37:18;;;;;;;10.93;7.70;;;5.40;99.90;;;;;;5058537;28;20235;-72
2022/02/20 09:39:45;;;;;;;12.90;8.52;;;5.20;99.90;;;;;;5049530;28;20180;-69
2022/02/20 09:42:12;;;;;;;11.68;8.50;;;5.50;99.90;;;;;;5050577;28;20237;-70
2022/02/20 09:44:39;;;;;;;12.73;8.07;;;5.50;99.90;;;;;;5052364;28;20379;-70
2022/02/20 09:47:08;;;;;;;10.88;8.50;;;5.50;99.90;;;;;;5059253;28;20181;-70
2022/02/20 09:49:36;;;;;;;12.27;9.43;;;5.60;99.90;;;;;;5062679;28;20389;-70
2022/02/20 09:52:06;;;;;;;9.35;8.35;;;5.70;99.90;;;;;;5055408;28;20308;-70
2022/02/20 09:54:33;;;;;;;12.85;9.70;;;5.70;99.90;;;;;;5059959;28;20213;-71
2022/02/20 09:57:00;;;;;;;11.55;10.20;;;5.70;99.90;;;;;;5056779;28;20189;-68
2022/02/20 09:59:26;;;;;;;12.48;9.45;;;5.80;99.90;;;;;;5055679;28;20259;-74
2022/02/20 10:02:08;;;;;;;13.25;10.30;;;5.80;99.90;;;;;;5056662;28;20208;-68
2022/02/20 10:04:43;;;;;;;11.80;10.18;;;5.90;99.90;;;;;;5056192;28;20192;-70
2022/02/20 10:07:26;;;;;;;14.65;12.05;;;5.90;99.90;;;;;;5057623;28;20215;-70
2022/02/20 10:09:54;;;;;;;11.63;10.38;;;6.00;99.90;;;;;;5056547;28;20248;-68
2022/02/20 10:12:22;;;;;;;11.48;10.02;;;6.20;99.90;;;;;;5055316;28;20220;-69
2022/02/20 10:14:50;;;;;;;19.88;12.40;;;6.20;99.90;;;;;;5059031;28;20227;-69
2022/02/20 10:17:19;;;;;;;17.63;12.15;;;6.10;99.90;;;;;;5052116;28;20209;-70
2022/02/20 10:19:53;;;;;;;20.13;13.70;;;6.20;99.90;;;;;;5049177;28;20252;-68
2022/02/20 10:22:29;;;;;;;15.82;12.57;;;6.30;99.90;;;;;;5049844;28;20313;-74
2022/02/20 10:25:06;;;;;;;17.90;11.80;;;6.20;99.90;;;;;;5052425;28;20244;-74
2022/02/20 10:27:34;;;;;;;15.65;12.13;;;6.40;99.90;;;;;;5050981;28;20205;-73
2022/02/20 10:30:19;;;;;;;15.05;12.15;;;6.40;99.90;;;;;;5048602;28;20262;-72
2022/02/20 10:33:02;;;;;;;15.13;11.55;;;6.60;99.90;;;;;;5047486;28;20206;-70
2022/02/20 10:35:31;;;;;;;16.55;11.70;;;6.70;99.90;;;;;;5051685;28;20383;-70
2022/02/20 10:38:00;;;;;;;12.50;9.93;;;6.80;99.90;;;;;;5052277;28;20186;-72
2022/02/20 10:40:29;;;;;;;13.15;10.95;;;6.90;99.90;;;;;;5051295;28;20203;-71
2022/02/20 10:42:58;;;;;;;12.13;10.25;;;7.00;99.90;;;;;;5047880;28;20246;-69
2022/02/20 10:45:27;;;;;;;13.65;9.90;;;7.10;99.90;;;;;;5050111;28;20218;-72
2022/02/20 10:47:55;;;;;;;14.30;11.02;;;7.20;99.90;;;;;;5055694;28;20247;-70
2022/02/20 10:50:24;;;;;;;15.85;10.68;;;7.20;99.90;;;;;;5051141;28;20219;-75
2022/02/20 10:53:14;;;;;;;11.90;10.18;;;7.20;99.90;;;;;;5054286;28;20390;-75
2022/02/20 10:55:47;;;;;;;12.32;9.93;;;7.20;99.90;;;;;;5049025;28;20399;-74
2022/02/20 10:58:18;;;;;;;11.60;9.25;;;7.40;99.90;;;;;;5057760;28;20247;-76
2022/02/20 11:00:53;;;;;;;11.90;9.55;;;7.40;99.90;;;;;;5054819;28;20215;-73
2022/02/20 11:03:22;;;;;;;13.00;10.55;;;7.50;99.90;;;;;;5050307;28;20318;-75
2022/02/20 11:05:49;;;;;;;11.25;9.80;;;7.50;99.90;;;;;;5049394;28;20211;-73
2022/02/20 11:08:19;;;;;;;10.32;9.00;;;7.60;99.90;;;;;;5055017;28;20192;-75
2022/02/20 11:10:47;;;;;;;9.82;8.85;;;7.60;99.90;;;;;;5052725;28;20204;-77
2022/02/20 11:13:16;;;;;;;9.18;7.18;;;7.70;99.90;;;;;;5053966;28;20271;-74
2022/02/20 11:15:45;;;;;;;8.73;6.85;;;7.80;99.90;;;;;;5052770;28;20390;-74
2022/02/20 11:18:16;;;;;;;9.02;8.13;;;7.80;99.90;;;;;;5046944;28;20188;-76
2022/02/20 11:20:45;;;;;;;8.75;7.85;;;7.90;99.90;;;;;;5045671;28;20199;-74
2022/02/20 11:23:15;;;;;;;8.02;7.22;;;8.00;99.90;;;;;;5048572;28;20218;-74
2022/02/20 11:25:46;;;;;;;7.40;6.70;;;8.10;99.90;;;;;;5050558;28;20184;-74
2022/02/20 11:28:13;;;;;;;8.43;7.63;;;8.10;99.90;;;;;;5047843;28;20184;-70
2022/02/20 11:30:40;;;;;;;10.48;7.80;;;8.20;99.90;;;;;;5050478;28;20225;-74
2022/02/20 11:33:09;;;;;;;10.32;7.53;;;8.30;99.90;;;;;;5046841;28;20451;-74
2022/02/20 11:35:40;;;;;;;8.07;5.88;;;8.40;99.90;;;;;;5054615;28;20502;-73
2022/02/20 11:38:13;;;;;;;7.70;5.85;;;8.50;99.90;;;;;;5048010;28;20194;-72
2022/02/20 11:40:58;;;;;;;6.13;5.53;;;8.50;99.90;;;;;;5048145;28;20299;-72
2022/02/20 11:43:40;;;;;;;7.35;5.80;;;8.70;99.90;;;;;;5050462;28;20234;-71
2022/02/20 11:46:11;;;;;;;9.70;5.75;;;8.80;99.90;;;;;;5050644;28;20238;-72
2022/02/20 11:48:59;;;;;;;7.68;6.93;;;8.80;99.90;;;;;;5049837;28;20224;-74
2022/02/20 11:51:29;;;;;;;10.13;5.63;;;8.90;99.90;;;;;;5053022;28;20202;-72
2022/02/20 11:54:13;;;;;;;12.65;6.05;;;9.00;99.90;;;;;;5048790;28;20437;-72
2022/02/20 11:56:43;;;;;;;7.63;5.35;;;9.10;99.90;;;;;;5053911;28;20230;-72
2022/02/20 11:59:17;;;;;;;7.78;5.30;;;9.20;99.90;;;;;;5045079;28;20411;-75
2022/02/20 12:02:08;;;;;;;10.38;5.32;;;9.30;99.90;;;;;;5044925;28;20187;-77
2022/02/20 12:05:06;;;;;;;12.70;5.70;;;9.30;99.90;;;;;;5045186;28;20279;-73
2022/02/20 12:07:38;;;;;;;9.05;5.07;;;9.40;99.90;;;;;;5045706;28;20188;-76
2022/02/20 12:10:30;;;;;;;6.97;4.63;;;9.50;99.90;;;;;;5052813;28;20226;-71
2022/02/20 12:13:19;;;;;;;15.85;6.85;;;9.70;99.90;;;;;;5043592;28;20391;-73
2022/02/20 12:15:46;;;;;;;7.60;5.10;;;9.80;99.90;;;;;;5047440;28;20226;-70
2022/02/20 12:18:30;;;;;;;5.15;3.92;;;9.90;99.90;;;;;;5048324;28;20184;-71
2022/02/20 12:21:16;;;;;;;17.17;4.45;;;9.90;99.90;;;;;;5052861;28;20227;-70
2022/02/20 12:23:51;;;;;;;9.82;5.18;;;10.00;99.90;;;;;;5040761;28;20224;-72
2022/02/20 12:26:43;;;;;;;8.93;5.13;;;10.10;99.90;;;;;;5043211;28;20227;-70
2022/02/20 12:29:15;;;;;;;14.75;5.60;;;10.10;99.90;;;;;;5050913;28;20197;-71
2022/02/20 12:32:02;;;;;;;17.38;6.05;;;10.20;99.90;;;;;;5048648;28;20189;-71
2022/02/20 12:34:50;;;;;;;14.45;4.95;;;10.20;99.90;;;;;;5045961;28;20250;-72
2022/02/20 12:37:18;;;;;;;11.65;5.45;;;10.20;99.90;;;;;;5059109;28;20184;-72
2022/02/20 12:39:46;;;;;;;12.48;4.63;;;10.30;99.90;;;;;;5064441;28;20191;-71
2022/02/20 12:42:14;;;;;;;20.65;5.57;;;10.30;99.90;;;;;;5044955;28;20204;-75
2022/02/20 12:44:42;;;;;;;10.85;5.20;;;10.30;99.90;;;;;;5052210;28;20294;-75
2022/02/20 12:47:11;;;;;;;12.63;4.75;;;10.30;99.90;;;;;;5046014;28;20252;-70
2022/02/20 12:49:41;;;;;;;11.95;5.82;;;10.40;99.90;;;;;;5045551;28;20199;-70
2022/02/20 12:52:10;;;;;;;9.48;5.85;;;10.40;99.90;;;;;;5046610;28;20204;-71
2022/02/20 12:54:38;;;;;;;13.30;5.60;;;10.40;99.90;;;;;;5051388;28;20209;-74
2022/02/20 12:57:07;;;;;;;10.25;5.85;;;10.50;99.90;;;;;;5055505;28;20180;-72
2022/02/20 12:59:52;;;;;;;11.52;5.30;;;10.50;99.90;;;;;;5050041;28;20208;-72